• Join FlightAware (Why Join?)
  • Login
  • US Flag 
02:50AM EST


 

Airport Tracker/Info


-or-


 

Live Flight TrackerFlight Track Log ✈ AVL71 ✈ 04-Jun-2014 ✈ KCRE - KHEF

Flight Track Log - Related Links

Times and Time Zones

All times are in EDT time to prevent confusion due to time zone crossing. See the AVL71 flight status page for this flight to view local times or setup timezone preferences in your user account.

Time Position Orientation Groundspeed Altitude Reporting Facility
EDT Latitude Longitude Course Direction KTS MPH feet Rate Location/Type
01:49PM 34.0205 -78.7505 354° North  Level FlightAware Approximate
01:50PM 34.0639 -78.7502 North  Level FlightAware Approximate
01:51PM 34.1071 -78.7523 345° North  Level FlightAware Approximate
01:52PM 34.1489 -78.7663 345° North  Level FlightAware Approximate
01:53PM 34.1908 -78.7555 North  Level Estimated
01:54PM 34.2309 -78.7370 21° North  Level FlightAware Approximate
01:55PM 34.2709 -78.7186 21° North  Level FlightAware Approximate
01:56PM 34.3110 -78.7001 21° North  Level FlightAware Approximate
01:57PM 34.3511 -78.6816 21° North  Level FlightAware Approximate
01:58PM 34.3930 -78.6710 North  Level Estimated
01:59PM 34.4358 -78.6673 North  Level FlightAware Approximate
02:00PM 34.4786 -78.6636 North  Level FlightAware Approximate
02:01PM 34.5213 -78.6599 North  Level FlightAware Approximate
02:02PM 34.5642 -78.6579 North  Level FlightAware Approximate
02:03PM 34.6071 -78.6559 North  Level FlightAware Approximate
02:04PM 34.6499 -78.6539 North  Level FlightAware Approximate
02:05PM 34.6928 -78.6519 North  Level FlightAware Approximate
02:06PM 34.7356 -78.6498 North  Level FlightAware Approximate
02:07PM 34.7785 -78.6478 North  Level FlightAware Approximate
02:08PM 34.8214 -78.6458 North  Level FlightAware Approximate
02:09PM 34.8642 -78.6438 North  Level FlightAware Approximate
02:10PM 34.9071 -78.6417 North  Level FlightAware Approximate
02:11PM 34.9500 -78.6397 North  Level FlightAware Approximate
02:11PM 34.8425 -78.6314 14° North 156 180 6,900  Level Washington Center
02:12PM 34.9836 -78.6080 38° Northeast  Level FlightAware Approximate
02:12PM 34.8636 -78.6244 15° North 157 181 7,000  Level Washington Center
02:13PM 35.0172 -78.5764 38° Northeast  Level FlightAware Approximate
02:13PM 34.9078 -78.6158 North 152 175 6,900  Level Washington Center
02:14PM 35.0508 -78.5447 38° Northeast  Level FlightAware Approximate
02:14PM 34.9497 -78.6050 12° North 152 175 7,000  Level Washington Center
02:15PM 35.0843 -78.5130 38° Northeast  Level FlightAware Approximate
02:15PM 34.9897 -78.5936 13° North 149 171 7,000  Level Washington Center
02:16PM 35.1259 -78.5021 10° North  Level Estimated
02:16PM 35.0336 -78.5828 11° North 148 170 6,900  Level Washington Center
02:17PM 35.1670 -78.4897 14° North  Level FlightAware Approximate
02:17PM 35.0756 -78.5742 10° North 158 182 7,000  Level Washington Center
02:18PM 35.1197 -78.5631 12° North 157 181 7,000  Level Washington Center
02:19PM 35.1597 -78.5517 13° North 150 173 7,000  Level Washington Center
02:20PM 35.1953 -78.5456 North 148 170 7,000  Level Washington Center
02:21PM 35.2394 -78.5344 12° North 154 177 7,000  Level Washington Center
02:22PM 35.2833 -78.5258 North 153 176 7,000  Level Washington Center
02:23PM 35.3253 -78.5197 North 153 176 7,000  Level Washington Center
02:24PM 35.3586 -78.5208 358° North 150 173 7,000 60 Level Washington Center
02:24PM 35.3692 -78.5186 10° North 150 173 7,100 60 Climbing Washington Center
02:25PM 35.4089 -78.5100 10° North 151 174 7,100 -60 Level Washington Center
02:26PM 35.4533 -78.4886 21° North 160 184 7,000 -60 Descending Washington Center
02:27PM 35.4933 -78.4747 16° North 157 181 7,000  Level Washington Center
02:28PM 35.5311 -78.4608 17° North 151 174 7,000  Level Washington Center
02:29PM 35.5794 -78.4550 North 149 171 7,000  Level Washington Center
02:30PM 35.6189 -78.4536 North 153 176 7,000  Level Washington Center
02:31PM 35.6653 -78.4400 13° North 158 182 7,000  Level Washington Center
02:32PM 35.7053 -78.4286 13° North 159 183 7,000  Level Washington Center
02:33PM 35.7556 -78.4178 10° North 156 180 7,000  Level Washington Center
02:34PM 35.7975 -78.4089 10° North 155 178 7,000  Level Washington Center
02:35PM 35.8394 -78.3975 12° North 156 180 7,000  Level Washington Center
02:36PM 35.8772 -78.3886 11° North 154 177 7,000 -60 Level Washington Center
02:37PM 35.9192 -78.3747 15° North 153 176 6,900 -60 Descending Washington Center
02:38PM 35.9633 -78.3636 12° North 150 173 6,900  Level Washington Center
02:39PM 36.0075 -78.3497 14° North 153 176 6,900  Level Washington Center
02:40PM 36.0472 -78.3408 10° North 154 177 7,000  Climbing Washington Center
02:41PM 36.0892 -78.3319 10° North 153 176 7,000 -60 Level Washington Center
02:42PM 36.1356 -78.3208 11° North 152 175 6,900  Descending Washington Center
02:43PM 36.1753 -78.3169 North 150 173 7,000 60 Climbing Washington Center
02:44PM 36.2089 -78.2975 25° Northeast 144 166 7,000  Level Washington Center
02:45PM 36.2425 -78.2908 North 164 189 7,000  Level Washington Center
02:46PM 36.2844 -78.2794 12° North 158 182 7,000  Level Washington Center
02:47PM 36.3264 -78.2681 12° North 158 182 7,000  Level Washington Center
02:48PM 36.3683 -78.2592 10° North 158 182 7,000  Level Washington Center
02:49PM 36.4103 -78.2503 10° North 158 182 7,000 -60 Level Washington Center
02:50PM 36.4503 -78.2414 10° North 158 182 6,900 -60 Descending Washington Center
02:51PM 36.4942 -78.2300 12° North 158 182 6,900  Level Washington Center
02:52PM 36.5342 -78.2208 10° North 158 182 7,000  Climbing Washington Center
02:53PM 36.5781 -78.2147 North 152 175 7,000 -60 Level Washington Center
02:54PM 36.6197 -78.2108 North 152 175 6,900  Descending Washington Center
02:55PM 36.6597 -78.1992 13° North 147 169 7,000  Climbing Washington Center
02:56PM 36.7081 -78.1775 20° North 147 169 7,000  Level Washington Center
02:57PM 36.7503 -78.1661 12° North 147 169 7,000 60 Level Washington Center
02:58PM 36.7942 -78.1544 12° North 147 169 7,200 -60 Climbing Washington Center
02:59PM 36.8425 -78.1458 North 158 182 6,900 -120 Descending Washington Center
03:00PM 36.8844 -78.1367 10° North 158 182 7,000  Climbing Washington Center
03:01PM 36.9242 -78.1278 10° North 164 189 7,000  Level Washington Center
03:02PM 36.9661 -78.1186 10° North 157 181 7,000  Level Washington Center
03:03PM 37.0058 -78.1069 13° North 157 181 7,000  Level Washington Center
03:04PM 37.0500 -78.0978 North 152 175 7,000  Level Washington Center
03:05PM 37.0939 -78.0889 North 152 175 7,000  Level Washington Center
03:06PM 37.1358 -78.0825 North 152 175 7,000  Level Washington Center
03:07PM 37.1797 -78.0761 North 152 175 7,000  Level Washington Center
03:08PM 37.2217 -78.0617 15° North 152 175 7,000  Level Washington Center
03:09PM 37.2617 -78.0475 16° North 152 175 7,000  Level Washington Center
03:10PM 37.3058 -78.0331 15° North 152 175 7,000 -60 Level Washington Center
03:11PM 37.3478 -78.0242 10° North 152 175 6,900 -300 Descending Washington Center
03:12PM 37.3958 -78.0125 11° North 152 175 6,400 -480 Descending Washington Center
03:13PM 37.4400 -77.9956 17° North 157 181 6,000 -240 Descending Washington Center
03:14PM 37.4842 -77.9814 14° North 162 186 6,000  Level Washington Center
03:16PM 37.5667 -77.9500 17° North 167 192 6,000  Level Potomac TRACON
03:17PM 37.6000 -77.9500 360° North 168 193 6,000  Level Potomac TRACON
03:18PM 37.6500 -77.9333 15° North 167 192 6,000  Level Potomac TRACON
03:19PM 37.7000 -77.9000 28° Northeast 169 194 6,000  Level Potomac TRACON
03:20PM 37.7333 -77.8833 22° Northeast 166 191 6,000  Level Potomac TRACON
03:21PM 37.7833 -77.8667 15° North 173 199 6,000  Level Potomac TRACON
03:22PM 37.8167 -77.8500 22° Northeast 163 188 6,000  Level Potomac TRACON
03:23PM 37.8667 -77.8333 15° North 168 193 6,000  Level Potomac TRACON
03:24PM 37.9167 -77.8167 15° North 166 191 6,000  Level Potomac TRACON
03:25PM 37.9500 -77.8167 360° North 164 189 6,000  Level Potomac TRACON
03:26PM 38.0000 -77.8000 15° North 164 189 6,000  Level Potomac TRACON
03:27PM 38.0500 -77.7833 15° North 168 193 6,000  Level Potomac TRACON
03:28PM 38.0833 -77.7667 21° North 167 192 6,000  Level Potomac TRACON
03:29PM 38.1333 -77.7500 15° North 168 193 6,000  Level Potomac TRACON
03:30PM 38.1833 -77.7333 15° North 163 188 6,000  Level Potomac TRACON
03:31PM 38.2167 -77.7167 21° North 158 182 6,000  Level Potomac TRACON
03:32PM 38.2667 -77.7000 15° North 163 188 6,000 -60 Level Potomac TRACON
03:33PM 38.3000 -77.6833 21° North 167 192 5,900 -360 Descending Potomac TRACON
03:34PM 38.3500 -77.6500 28° Northeast 185 213 5,300 -600 Descending Potomac TRACON
03:35PM 38.4000 -77.6333 15° North 183 211 4,700 -600 Descending Potomac TRACON
03:36PM 38.4500 -77.6333 360° North 183 211 4,100 -360 Descending Potomac TRACON
03:37PM 38.5000 -77.6333 360° North 168 193 4,000 -240 Descending Potomac TRACON
03:38PM 38.5500 -77.6500 345° North 168 193 3,700 -600 Descending Potomac TRACON
03:39PM 38.6000 -77.6333 15° North 176 203 2,900 -840 Descending Potomac TRACON
03:40PM 38.6333 -77.6167 21° North 175 201 2,100 -720 Descending Potomac TRACON
03:41PM 38.6667 -77.5667 49° Northeast 164 189 1,500 -420 Descending Potomac TRACON
03:42PM 38.6833 -77.5167 67° East 134 154 1,300 -480 Descending Potomac TRACON
03:43PM 38.7000 -77.5000 38° Northeast 106 122 600 -720 Descending Potomac TRACON
03:45PM 38.7167 -77.5000 46° Northeast  Level FlightAware Approximate
03:52PM 38.7210 -77.5151 46° Northeast  Level Estimated